sensor_id;sensor_type;location;lat;lon;timestamp;temperature;humidity
66568;DHT22;53422;49.296;6.900;2023-08-06T00:02:25;17.30;99.90
66568;DHT22;53422;49.296;6.900;2023-08-06T00:04:50;17.30;99.90
66568;DHT22;53422;49.296;6.900;2023-08-06T00:07:16;17.30;99.90
66568;DHT22;53422;49.296;6.900;2023-08-06T00:09:41;17.30;99.90
66568;DHT22;53422;49.296;6.900;2023-08-06T00:12:07;17.40;99.90
66568;DHT22;53422;49.296;6.900;2023-08-06T00:14:33;17.40;99.90
66568;DHT22;53422;49.296;6.900;2023-08-06T00:16:58;17.40;99.90
66568;DHT22;53422;49.296;6.900;2023-08-06T00:19:24;17.30;99.90
66568;DHT22;53422;49.296;6.900;2023-08-06T00:21:50;17.40;99.90
66568;DHT22;53422;49.296;6.900;2023-08-06T00:24:15;17.30;99.90
66568;DHT22;53422;49.296;6.900;2023-08-06T00:26:41;17.40;99.90
66568;DHT22;53422;49.296;6.900;2023-08-06T00:29:07;17.30;99.90
66568;DHT22;53422;49.296;6.900;2023-08-06T00:31:32;17.30;99.90
66568;DHT22;53422;49.296;6.900;2023-08-06T00:33:58;17.30;99.90
66568;DHT22;53422;49.296;6.900;2023-08-06T00:36:23;17.30;99.90
66568;DHT22;53422;49.296;6.900;2023-08-06T00:38:49;17.30;99.90
66568;DHT22;53422;49.296;6.900;2023-08-06T00:41:15;17.20;99.90
66568;DHT22;53422;49.296;6.900;2023-08-06T00:43:40;17.10;99.90
66568;DHT22;53422;49.296;6.900;2023-08-06T00:46:06;17.10;99.90
66568;DHT22;53422;49.296;6.900;2023-08-06T00:48:32;17.20;99.90
66568;DHT22;53422;49.296;6.900;2023-08-06T00:50:59;17.20;99.90
66568;DHT22;53422;49.296;6.900;2023-08-06T00:53:24;17.20;99.90
66568;DHT22;53422;49.296;6.900;2023-08-06T00:55:51;17.10;99.90
66568;DHT22;53422;49.296;6.900;2023-08-06T00:58:17;17.10;99.90
66568;DHT22;53422;49.296;6.900;2023-08-06T01:00:43;17.20;99.90
66568;DHT22;53422;49.296;6.900;2023-08-06T01:03:08;17.20;99.90
66568;DHT22;53422;49.296;6.900;2023-08-06T01:05:34;17.10;99.90
66568;DHT22;53422;49.296;6.900;2023-08-06T01:13:48;17.00;99.90
66568;DHT22;53422;49.296;6.900;2023-08-06T01:16:16;17.10;99.90
66568;DHT22;53422;49.296;6.900;2023-08-06T01:18:42;17.10;99.90
66568;DHT22;53422;49.296;6.900;2023-08-06T01:21:14;17.10;99.90
66568;DHT22;53422;49.296;6.900;2023-08-06T01:23:41;17.10;99.90
66568;DHT22;53422;49.296;6.900;2023-08-06T01:26:33;17.10;99.90
66568;DHT22;53422;49.296;6.900;2023-08-06T01:29:19;17.20;99.90
66568;DHT22;53422;49.296;6.900;2023-08-06T01:31:48;17.10;99.90
66568;DHT22;53422;49.296;6.900;2023-08-06T01:34:24;17.10;99.90
66568;DHT22;53422;49.296;6.900;2023-08-06T01:36:51;17.20;99.90
66568;DHT22;53422;49.296;6.900;2023-08-06T01:39:17;17.10;99.90
66568;DHT22;53422;49.296;6.900;2023-08-06T01:41:46;17.10;99.90
66568;DHT22;53422;49.296;6.900;2023-08-06T01:44:12;17.20;99.90
66568;DHT22;53422;49.296;6.900;2023-08-06T01:46:38;17.20;99.90
66568;DHT22;53422;49.296;6.900;2023-08-06T01:49:03;17.10;99.90
66568;DHT22;53422;49.296;6.900;2023-08-06T01:51:29;17.10;99.90
66568;DHT22;53422;49.296;6.900;2023-08-06T01:53:54;17.00;99.90
66568;DHT22;53422;49.296;6.900;2023-08-06T01:56:20;17.00;99.90
66568;DHT22;53422;49.296;6.900;2023-08-06T01:58:46;16.80;99.90
66568;DHT22;53422;49.296;6.900;2023-08-06T02:01:11;16.80;99.90
66568;DHT22;53422;49.296;6.900;2023-08-06T02:03:37;16.90;99.90
66568;DHT22;53422;49.296;6.900;2023-08-06T02:06:02;16.90;99.90
66568;DHT22;53422;49.296;6.900;2023-08-06T02:08:28;16.70;99.90
66568;DHT22;53422;49.296;6.900;2023-08-06T02:10:54;16.70;99.90
66568;DHT22;53422;49.296;6.900;2023-08-06T02:13:20;16.80;99.90
66568;DHT22;53422;49.296;6.900;2023-08-06T02:15:46;16.70;99.90
66568;DHT22;53422;49.296;6.900;2023-08-06T02:18:14;16.60;99.90
66568;DHT22;53422;49.296;6.900;2023-08-06T02:20:40;16.70;99.90
66568;DHT22;53422;49.296;6.900;2023-08-06T02:23:06;16.60;99.90
66568;DHT22;53422;49.296;6.900;2023-08-06T02:25:32;16.70;99.90
66568;DHT22;53422;49.296;6.900;2023-08-06T02:27:58;16.60;99.90
66568;DHT22;53422;49.296;6.900;2023-08-06T02:30:23;16.70;99.90
66568;DHT22;53422;49.296;6.900;2023-08-06T02:32:49;16.80;99.90
66568;DHT22;53422;49.296;6.900;2023-08-06T02:35:14;16.80;99.90
66568;DHT22;53422;49.296;6.900;2023-08-06T02:37:40;16.80;99.90
66568;DHT22;53422;49.296;6.900;2023-08-06T02:40:06;16.70;99.90
66568;DHT22;53422;49.296;6.900;2023-08-06T02:42:32;16.70;99.90
66568;DHT22;53422;49.296;6.900;2023-08-06T02:44:58;16.70;99.90
66568;DHT22;53422;49.296;6.900;2023-08-06T02:47:23;16.60;99.90
66568;DHT22;53422;49.296;6.900;2023-08-06T02:49:49;16.70;99.90
66568;DHT22;53422;49.296;6.900;2023-08-06T02:52:15;16.70;99.90
66568;DHT22;53422;49.296;6.900;2023-08-06T02:54:40;16.70;99.90
66568;DHT22;53422;49.296;6.900;2023-08-06T02:57:06;16.70;99.90
66568;DHT22;53422;49.296;6.900;2023-08-06T02:59:32;16.80;99.90
66568;DHT22;53422;49.296;6.900;2023-08-06T03:01:58;16.80;99.90
66568;DHT22;53422;49.296;6.900;2023-08-06T03:04:23;16.60;99.90
66568;DHT22;53422;49.296;6.900;2023-08-06T03:06:49;16.70;99.90
66568;DHT22;53422;49.296;6.900;2023-08-06T03:09:16;16.70;99.90
66568;DHT22;53422;49.296;6.900;2023-08-06T03:11:41;16.70;99.90
66568;DHT22;53422;49.296;6.900;2023-08-06T03:14:07;16.70;99.90
66568;DHT22;53422;49.296;6.900;2023-08-06T03:16:32;16.70;99.90
66568;DHT22;53422;49.296;6.900;2023-08-06T03:18:58;16.70;99.90
66568;DHT22;53422;49.296;6.900;2023-08-06T03:21:24;16.80;99.90
66568;DHT22;53422;49.296;6.900;2023-08-06T03:23:49;16.70;99.90
66568;DHT22;53422;49.296;6.900;2023-08-06T03:26:15;16.60;99.90
66568;DHT22;53422;49.296;6.900;2023-08-06T03:28:41;16.70;99.90
66568;DHT22;53422;49.296;6.900;2023-08-06T03:31:06;16.70;99.90
66568;DHT22;53422;49.296;6.900;2023-08-06T03:33:32;16.70;99.90
66568;DHT22;53422;49.296;6.900;2023-08-06T03:35:57;16.60;99.90
66568;DHT22;53422;49.296;6.900;2023-08-06T03:38:23;16.60;99.90
66568;DHT22;53422;49.296;6.900;2023-08-06T03:40:49;16.60;99.90
66568;DHT22;53422;49.296;6.900;2023-08-06T03:43:15;16.60;99.90
66568;DHT22;53422;49.296;6.900;2023-08-06T03:45:41;16.70;99.90
66568;DHT22;53422;49.296;6.900;2023-08-06T03:48:07;16.40;99.90
66568;DHT22;53422;49.296;6.900;2023-08-06T03:50:33;16.50;99.90
66568;DHT22;53422;49.296;6.900;2023-08-06T03:52:58;16.50;99.90
66568;DHT22;53422;49.296;6.900;2023-08-06T03:55:24;16.60;99.90
66568;DHT22;53422;49.296;6.900;2023-08-06T03:57:49;16.50;99.90
66568;DHT22;53422;49.296;6.900;2023-08-06T04:00:15;16.60;99.90
66568;DHT22;53422;49.296;6.900;2023-08-06T04:02:41;16.50;99.90
66568;DHT22;53422;49.296;6.900;2023-08-06T04:05:07;16.50;99.90
66568;DHT22;53422;49.296;6.900;2023-08-06T04:07:33;16.60;99.90
66568;DHT22;53422;49.296;6.900;2023-08-06T04:10:04;16.50;99.90
66568;DHT22;53422;49.296;6.900;2023-08-06T04:12:30;16.60;99.90
66568;DHT22;53422;49.296;6.900;2023-08-06T04:14:57;16.40;99.90
66568;DHT22;53422;49.296;6.900;2023-08-06T04:17:23;16.50;99.90
66568;DHT22;53422;49.296;6.900;2023-08-06T04:19:50;16.40;99.90
66568;DHT22;53422;49.296;6.900;2023-08-06T04:22:16;16.60;99.90
66568;DHT22;53422;49.296;6.900;2023-08-06T04:24:42;16.50;99.90
66568;DHT22;53422;49.296;6.900;2023-08-06T04:27:09;16.60;99.90
66568;DHT22;53422;49.296;6.900;2023-08-06T04:29:36;16.60;99.90
66568;DHT22;53422;49.296;6.900;2023-08-06T04:32:01;16.60;99.90
66568;DHT22;53422;49.296;6.900;2023-08-06T04:34:27;16.70;99.90
66568;DHT22;53422;49.296;6.900;2023-08-06T04:36:53;16.60;99.90
66568;DHT22;53422;49.296;6.900;2023-08-06T04:39:18;16.40;99.90
66568;DHT22;53422;49.296;6.900;2023-08-06T04:41:44;16.50;99.90
66568;DHT22;53422;49.296;6.900;2023-08-06T04:44:10;16.50;99.90
66568;DHT22;53422;49.296;6.900;2023-08-06T04:46:35;16.30;99.90
66568;DHT22;53422;49.296;6.900;2023-08-06T04:49:01;16.40;99.90
66568;DHT22;53422;49.296;6.900;2023-08-06T04:51:26;16.40;99.90
66568;DHT22;53422;49.296;6.900;2023-08-06T04:53:52;16.50;99.90
66568;DHT22;53422;49.296;6.900;2023-08-06T04:56:18;16.50;99.90
66568;DHT22;53422;49.296;6.900;2023-08-06T04:58:43;16.40;99.90
66568;DHT22;53422;49.296;6.900;2023-08-06T05:01:09;16.40;99.90
66568;DHT22;53422;49.296;6.900;2023-08-06T05:03:35;16.40;99.90
66568;DHT22;53422;49.296;6.900;2023-08-06T05:06:00;16.50;99.90
66568;DHT22;53422;49.296;6.900;2023-08-06T05:08:26;16.50;99.90
66568;DHT22;53422;49.296;6.900;2023-08-06T05:10:52;16.50;99.90
66568;DHT22;53422;49.296;6.900;2023-08-06T05:13:17;16.30;99.90
66568;DHT22;53422;49.296;6.900;2023-08-06T05:15:43;16.30;99.90
66568;DHT22;53422;49.296;6.900;2023-08-06T05:18:10;16.40;99.90
66568;DHT22;53422;49.296;6.900;2023-08-06T05:20:38;16.40;99.90
66568;DHT22;53422;49.296;6.900;2023-08-06T05:23:03;16.50;99.90
66568;DHT22;53422;49.296;6.900;2023-08-06T05:25:29;16.50;99.90
66568;DHT22;53422;49.296;6.900;2023-08-06T05:27:55;16.40;99.90
66568;DHT22;53422;49.296;6.900;2023-08-06T05:30:21;16.40;99.90
66568;DHT22;53422;49.296;6.900;2023-08-06T05:32:46;16.30;99.90
66568;DHT22;53422;49.296;6.900;2023-08-06T05:35:12;16.30;99.90
66568;DHT22;53422;49.296;6.900;2023-08-06T05:37:38;16.30;99.90
66568;DHT22;53422;49.296;6.900;2023-08-06T05:40:04;16.30;99.90
66568;DHT22;53422;49.296;6.900;2023-08-06T05:42:30;16.30;99.90
66568;DHT22;53422;49.296;6.900;2023-08-06T05:44:56;16.40;99.90
66568;DHT22;53422;49.296;6.900;2023-08-06T05:47:22;16.40;99.90
66568;DHT22;53422;49.296;6.900;2023-08-06T05:49:47;16.40;99.90
66568;DHT22;53422;49.296;6.900;2023-08-06T05:52:13;16.30;99.90
66568;DHT22;53422;49.296;6.900;2023-08-06T05:54:38;16.30;99.90
66568;DHT22;53422;49.296;6.900;2023-08-06T05:57:06;16.40;99.90
66568;DHT22;53422;49.296;6.900;2023-08-06T05:59:32;16.30;99.90
66568;DHT22;53422;49.296;6.900;2023-08-06T06:01:58;16.40;99.90
66568;DHT22;53422;49.296;6.900;2023-08-06T06:04:25;16.40;99.90
66568;DHT22;53422;49.296;6.900;2023-08-06T06:06:50;16.40;99.90
66568;DHT22;53422;49.296;6.900;2023-08-06T06:09:16;16.40;99.90
66568;DHT22;53422;49.296;6.900;2023-08-06T06:11:42;16.30;99.90
66568;DHT22;53422;49.296;6.900;2023-08-06T06:14:08;16.30;99.90
66568;DHT22;53422;49.296;6.900;2023-08-06T06:16:34;16.30;99.90
66568;DHT22;53422;49.296;6.900;2023-08-06T06:19:00;16.30;99.90
66568;DHT22;53422;49.296;6.900;2023-08-06T06:21:25;16.30;99.90
66568;DHT22;53422;49.296;6.900;2023-08-06T06:23:51;16.30;99.90
66568;DHT22;53422;49.296;6.900;2023-08-06T06:26:18;16.40;99.90
66568;DHT22;53422;49.296;6.900;2023-08-06T06:28:44;16.40;99.90
66568;DHT22;53422;49.296;6.900;2023-08-06T06:31:10;16.30;99.90
66568;DHT22;53422;49.296;6.900;2023-08-06T06:33:36;16.40;99.90
66568;DHT22;53422;49.296;6.900;2023-08-06T06:36:02;16.40;99.90
66568;DHT22;53422;49.296;6.900;2023-08-06T06:38:29;16.30;99.90
66568;DHT22;53422;49.296;6.900;2023-08-06T06:40:58;16.30;99.90
66568;DHT22;53422;49.296;6.900;2023-08-06T06:43:24;16.40;99.90
66568;DHT22;53422;49.296;6.900;2023-08-06T06:45:56;16.40;99.90
66568;DHT22;53422;49.296;6.900;2023-08-06T06:48:29;16.40;99.90
66568;DHT22;53422;49.296;6.900;2023-08-06T06:50:55;16.40;99.90
66568;DHT22;53422;49.296;6.900;2023-08-06T06:53:20;16.40;99.90
66568;DHT22;53422;49.296;6.900;2023-08-06T06:55:48;16.40;99.90
66568;DHT22;53422;49.296;6.900;2023-08-06T06:58:15;16.40;99.90
66568;DHT22;53422;49.296;6.900;2023-08-06T07:00:41;16.50;99.90
66568;DHT22;53422;49.296;6.900;2023-08-06T07:03:07;16.30;99.90
66568;DHT22;53422;49.296;6.900;2023-08-06T07:05:33;16.20;99.90
66568;DHT22;53422;49.296;6.900;2023-08-06T07:07:58;16.30;99.90
66568;DHT22;53422;49.296;6.900;2023-08-06T07:10:25;16.30;99.90
66568;DHT22;53422;49.296;6.900;2023-08-06T07:12:51;16.30;99.90
66568;DHT22;53422;49.296;6.900;2023-08-06T07:15:17;16.40;99.90
66568;DHT22;53422;49.296;6.900;2023-08-06T07:17:43;16.30;99.90
66568;DHT22;53422;49.296;6.900;2023-08-06T07:20:09;16.40;99.90
66568;DHT22;53422;49.296;6.900;2023-08-06T07:22:35;16.40;99.90
66568;DHT22;53422;49.296;6.900;2023-08-06T07:25:01;16.30;99.90
66568;DHT22;53422;49.296;6.900;2023-08-06T07:27:27;16.40;99.90
66568;DHT22;53422;49.296;6.900;2023-08-06T07:29:53;16.40;99.90
66568;DHT22;53422;49.296;6.900;2023-08-06T07:32:20;16.40;99.90
66568;DHT22;53422;49.296;6.900;2023-08-06T07:34:46;16.50;99.90
66568;DHT22;53422;49.296;6.900;2023-08-06T07:37:11;16.50;99.90
66568;DHT22;53422;49.296;6.900;2023-08-06T07:39:37;16.50;99.90
66568;DHT22;53422;49.296;6.900;2023-08-06T07:42:05;16.50;99.90
66568;DHT22;53422;49.296;6.900;2023-08-06T07:44:32;16.50;99.90
66568;DHT22;53422;49.296;6.900;2023-08-06T07:46:58;16.50;99.90
66568;DHT22;53422;49.296;6.900;2023-08-06T07:49:24;16.50;99.90
66568;DHT22;53422;49.296;6.900;2023-08-06T07:51:50;16.60;99.90
66568;DHT22;53422;49.296;6.900;2023-08-06T07:54:17;16.50;99.90
66568;DHT22;53422;49.296;6.900;2023-08-06T07:56:43;16.60;99.90
66568;DHT22;53422;49.296;6.900;2023-08-06T07:59:09;16.60;99.90
66568;DHT22;53422;49.296;6.900;2023-08-06T08:01:34;16.60;99.90
66568;DHT22;53422;49.296;6.900;2023-08-06T08:04:00;16.70;99.90
66568;DHT22;53422;49.296;6.900;2023-08-06T08:06:26;16.60;99.90
66568;DHT22;53422;49.296;6.900;2023-08-06T08:08:52;16.60;99.90
66568;DHT22;53422;49.296;6.900;2023-08-06T08:11:18;16.60;99.90
66568;DHT22;53422;49.296;6.900;2023-08-06T08:13:45;16.60;99.90
66568;DHT22;53422;49.296;6.900;2023-08-06T08:16:10;16.60;99.90
66568;DHT22;53422;49.296;6.900;2023-08-06T08:18:36;16.50;99.90
66568;DHT22;53422;49.296;6.900;2023-08-06T08:21:02;16.50;99.90
66568;DHT22;53422;49.296;6.900;2023-08-06T08:23:28;16.60;99.90
66568;DHT22;53422;49.296;6.900;2023-08-06T08:25:54;16.60;99.90
66568;DHT22;53422;49.296;6.900;2023-08-06T08:28:21;16.50;99.90
66568;DHT22;53422;49.296;6.900;2023-08-06T08:30:47;16.60;99.90
66568;DHT22;53422;49.296;6.900;2023-08-06T08:33:13;16.60;99.90
66568;DHT22;53422;49.296;6.900;2023-08-06T08:35:39;16.60;99.90
66568;DHT22;53422;49.296;6.900;2023-08-06T08:38:06;16.60;99.90
66568;DHT22;53422;49.296;6.900;2023-08-06T08:40:32;16.50;99.90
66568;DHT22;53422;49.296;6.900;2023-08-06T08:43:02;16.60;99.90
66568;DHT22;53422;49.296;6.900;2023-08-06T08:45:29;16.60;99.90
66568;DHT22;53422;49.296;6.900;2023-08-06T08:47:55;16.50;99.90
66568;DHT22;53422;49.296;6.900;2023-08-06T08:50:21;16.50;99.90
66568;DHT22;53422;49.296;6.900;2023-08-06T08:52:47;16.50;99.90
66568;DHT22;53422;49.296;6.900;2023-08-06T08:55:15;16.50;99.90
66568;DHT22;53422;49.296;6.900;2023-08-06T08:57:42;16.60;99.90
66568;DHT22;53422;49.296;6.900;2023-08-06T09:00:08;16.60;99.90
66568;DHT22;53422;49.296;6.900;2023-08-06T09:02:34;16.60;99.90
66568;DHT22;53422;49.296;6.900;2023-08-06T09:05:03;16.60;99.90
66568;DHT22;53422;49.296;6.900;2023-08-06T09:07:35;16.60;99.90
66568;DHT22;53422;49.296;6.900;2023-08-06T09:10:02;16.60;99.90
66568;DHT22;53422;49.296;6.900;2023-08-06T09:12:30;16.60;99.90
66568;DHT22;53422;49.296;6.900;2023-08-06T09:14:56;16.60;99.90
66568;DHT22;53422;49.296;6.900;2023-08-06T09:17:21;16.50;99.90
66568;DHT22;53422;49.296;6.900;2023-08-06T09:19:47;16.50;99.90
66568;DHT22;53422;49.296;6.900;2023-08-06T09:22:14;16.60;99.90
66568;DHT22;53422;49.296;6.900;2023-08-06T09:24:43;16.60;99.90
66568;DHT22;53422;49.296;6.900;2023-08-06T09:27:12;16.60;99.90
66568;DHT22;53422;49.296;6.900;2023-08-06T09:29:45;16.60;99.90
66568;DHT22;53422;49.296;6.900;2023-08-06T09:32:12;16.50;99.90
66568;DHT22;53422;49.296;6.900;2023-08-06T09:34:41;16.60;99.90
66568;DHT22;53422;49.296;6.900;2023-08-06T09:37:09;16.60;99.90
66568;DHT22;53422;49.296;6.900;2023-08-06T09:39:35;16.60;99.90
66568;DHT22;53422;49.296;6.900;2023-08-06T09:42:02;16.60;99.90
66568;DHT22;53422;49.296;6.900;2023-08-06T09:44:30;16.50;99.90
66568;DHT22;53422;49.296;6.900;2023-08-06T09:46:56;16.60;99.90
66568;DHT22;53422;49.296;6.900;2023-08-06T09:49:26;16.60;99.90
66568;DHT22;53422;49.296;6.900;2023-08-06T09:51:53;16.70;99.90
66568;DHT22;53422;49.296;6.900;2023-08-06T09:54:24;16.70;99.90
66568;DHT22;53422;49.296;6.900;2023-08-06T09:56:50;16.80;99.90
66568;DHT22;53422;49.296;6.900;2023-08-06T09:59:17;16.80;99.90
66568;DHT22;53422;49.296;6.900;2023-08-06T10:01:43;16.80;99.90
66568;DHT22;53422;49.296;6.900;2023-08-06T10:04:09;16.70;99.90
66568;DHT22;53422;49.296;6.900;2023-08-06T10:06:37;16.80;99.90
66568;DHT22;53422;49.296;6.900;2023-08-06T10:09:04;16.80;99.90
66568;DHT22;53422;49.296;6.900;2023-08-06T10:11:30;16.80;99.90
66568;DHT22;53422;49.296;6.900;2023-08-06T10:14:12;16.80;99.90
66568;DHT22;53422;49.296;6.900;2023-08-06T10:16:40;16.80;99.90
66568;DHT22;53422;49.296;6.900;2023-08-06T10:19:09;16.90;99.90
66568;DHT22;53422;49.296;6.900;2023-08-06T10:21:35;16.90;99.90
66568;DHT22;53422;49.296;6.900;2023-08-06T10:24:00;16.90;99.90
66568;DHT22;53422;49.296;6.900;2023-08-06T10:26:28;16.90;99.90
66568;DHT22;53422;49.296;6.900;2023-08-06T10:28:54;16.90;99.90
66568;DHT22;53422;49.296;6.900;2023-08-06T10:31:52;16.90;99.90
66568;DHT22;53422;49.296;6.900;2023-08-06T10:34:07;16.80;99.90
66568;DHT22;53422;49.296;6.900;2023-08-06T10:36:33;16.90;99.90
66568;DHT22;53422;49.296;6.900;2023-08-06T10:38:58;16.80;99.90
66568;DHT22;53422;49.296;6.900;2023-08-06T10:41:29;16.80;99.90
66568;DHT22;53422;49.296;6.900;2023-08-06T10:44:07;16.80;99.90
66568;DHT22;53422;49.296;6.900;2023-08-06T10:46:33;16.90;99.90
66568;DHT22;53422;49.296;6.900;2023-08-06T10:48:59;16.90;99.90
66568;DHT22;53422;49.296;6.900;2023-08-06T10:51:25;16.90;99.90
66568;DHT22;53422;49.296;6.900;2023-08-06T10:53:51;16.90;99.90
66568;DHT22;53422;49.296;6.900;2023-08-06T10:56:18;17.00;99.90
66568;DHT22;53422;49.296;6.900;2023-08-06T10:58:45;17.00;99.90
66568;DHT22;53422;49.296;6.900;2023-08-06T11:01:12;17.00;99.90
66568;DHT22;53422;49.296;6.900;2023-08-06T11:03:39;17.00;99.90
66568;DHT22;53422;49.296;6.900;2023-08-06T11:06:07;17.10;99.90
66568;DHT22;53422;49.296;6.900;2023-08-06T11:08:37;17.20;99.90
66568;DHT22;53422;49.296;6.900;2023-08-06T11:11:10;17.20;99.90
66568;DHT22;53422;49.296;6.900;2023-08-06T11:13:40;17.30;99.90
66568;DHT22;53422;49.296;6.900;2023-08-06T11:16:06;17.30;99.90
66568;DHT22;53422;49.296;6.900;2023-08-06T11:18:32;17.30;99.90
66568;DHT22;53422;49.296;6.900;2023-08-06T11:20:59;17.30;99.90
66568;DHT22;53422;49.296;6.900;2023-08-06T11:23:27;17.40;99.90
66568;DHT22;53422;49.296;6.900;2023-08-06T11:25:53;17.40;99.90
66568;DHT22;53422;49.296;6.900;2023-08-06T11:28:19;17.50;99.90
66568;DHT22;53422;49.296;6.900;2023-08-06T11:30:47;17.50;99.90
66568;DHT22;53422;49.296;6.900;2023-08-06T11:33:12;17.60;99.90
66568;DHT22;53422;49.296;6.900;2023-08-06T11:35:38;17.70;99.90
66568;DHT22;53422;49.296;6.900;2023-08-06T11:38:05;17.80;99.90
66568;DHT22;53422;49.296;6.900;2023-08-06T11:40:32;17.80;99.90
66568;DHT22;53422;49.296;6.900;2023-08-06T11:42:59;17.80;99.90
66568;DHT22;53422;49.296;6.900;2023-08-06T11:45:24;17.90;99.90
66568;DHT22;53422;49.296;6.900;2023-08-06T11:47:51;17.80;99.90
66568;DHT22;53422;49.296;6.900;2023-08-06T11:50:27;17.90;99.90
66568;DHT22;53422;49.296;6.900;2023-08-06T11:53:02;17.80;99.90
66568;DHT22;53422;49.296;6.900;2023-08-06T11:55:29;17.90;99.90
66568;DHT22;53422;49.296;6.900;2023-08-06T11:57:55;17.90;99.90
66568;DHT22;53422;49.296;6.900;2023-08-06T12:00:23;17.90;99.90
66568;DHT22;53422;49.296;6.900;2023-08-06T12:02:50;17.80;99.90
66568;DHT22;53422;49.296;6.900;2023-08-06T12:05:18;17.90;99.90
66568;DHT22;53422;49.296;6.900;2023-08-06T12:07:50;18.00;99.90
66568;DHT22;53422;49.296;6.900;2023-08-06T12:10:17;18.00;99.90
66568;DHT22;53422;49.296;6.900;2023-08-06T12:12:45;18.00;99.90
66568;DHT22;53422;49.296;6.900;2023-08-06T12:15:11;17.90;99.90
66568;DHT22;53422;49.296;6.900;2023-08-06T12:17:37;18.00;99.90
66568;DHT22;53422;49.296;6.900;2023-08-06T12:20:04;18.00;99.90
66568;DHT22;53422;49.296;6.900;2023-08-06T12:22:31;18.10;99.90
66568;DHT22;53422;49.296;6.900;2023-08-06T12:25:03;18.20;99.90
66568;DHT22;53422;49.296;6.900;2023-08-06T12:27:33;18.30;99.90
66568;DHT22;53422;49.296;6.900;2023-08-06T12:29:59;18.40;99.90
66568;DHT22;53422;49.296;6.900;2023-08-06T12:32:25;18.50;99.90
66568;DHT22;53422;49.296;6.900;2023-08-06T12:34:51;18.50;99.90
66568;DHT22;53422;49.296;6.900;2023-08-06T12:37:17;18.50;99.90
66568;DHT22;53422;49.296;6.900;2023-08-06T12:39:43;18.60;99.90
66568;DHT22;53422;49.296;6.900;2023-08-06T12:42:08;18.60;99.90
66568;DHT22;53422;49.296;6.900;2023-08-06T12:44:34;18.80;99.90
66568;DHT22;53422;49.296;6.900;2023-08-06T12:47:00;18.90;99.90
66568;DHT22;53422;49.296;6.900;2023-08-06T12:49:26;18.90;99.90
66568;DHT22;53422;49.296;6.900;2023-08-06T12:51:52;18.90;99.90
66568;DHT22;53422;49.296;6.900;2023-08-06T12:54:19;18.90;99.90
66568;DHT22;53422;49.296;6.900;2023-08-06T12:56:46;18.90;99.90
66568;DHT22;53422;49.296;6.900;2023-08-06T12:59:13;18.90;99.90
66568;DHT22;53422;49.296;6.900;2023-08-06T13:01:39;18.90;99.90
66568;DHT22;53422;49.296;6.900;2023-08-06T13:04:05;19.00;99.90
66568;DHT22;53422;49.296;6.900;2023-08-06T13:06:31;18.90;99.90
66568;DHT22;53422;49.296;6.900;2023-08-06T13:09:04;18.90;99.90
66568;DHT22;53422;49.296;6.900;2023-08-06T13:11:31;18.90;99.90
66568;DHT22;53422;49.296;6.900;2023-08-06T13:14:10;18.80;99.90
66568;DHT22;53422;49.296;6.900;2023-08-06T13:16:38;18.80;99.90
66568;DHT22;53422;49.296;6.900;2023-08-06T13:19:04;18.70;99.90
66568;DHT22;53422;49.296;6.900;2023-08-06T13:21:35;18.70;99.90
66568;DHT22;53422;49.296;6.900;2023-08-06T13:24:04;18.70;99.90
66568;DHT22;53422;49.296;6.900;2023-08-06T13:26:30;18.70;99.90
66568;DHT22;53422;49.296;6.900;2023-08-06T13:29:00;18.70;99.90
66568;DHT22;53422;49.296;6.900;2023-08-06T13:31:27;18.70;99.90
66568;DHT22;53422;49.296;6.900;2023-08-06T13:33:54;18.70;99.90
66568;DHT22;53422;49.296;6.900;2023-08-06T13:36:21;18.90;99.90
66568;DHT22;53422;49.296;6.900;2023-08-06T13:38:47;18.90;99.90
66568;DHT22;53422;49.296;6.900;2023-08-06T13:41:12;19.00;99.90
66568;DHT22;53422;49.296;6.900;2023-08-06T13:43:39;18.90;99.90
66568;DHT22;53422;49.296;6.900;2023-08-06T13:46:05;19.00;99.90
66568;DHT22;53422;49.296;6.900;2023-08-06T13:48:30;19.10;99.90
66568;DHT22;53422;49.296;6.900;2023-08-06T13:50:56;19.10;99.90
66568;DHT22;53422;49.296;6.900;2023-08-06T13:53:21;19.10;99.90
66568;DHT22;53422;49.296;6.900;2023-08-06T13:55:47;19.10;99.90
66568;DHT22;53422;49.296;6.900;2023-08-06T13:58:13;19.10;99.90
66568;DHT22;53422;49.296;6.900;2023-08-06T14:00:38;19.20;99.90
66568;DHT22;53422;49.296;6.900;2023-08-06T14:03:04;19.30;99.90
66568;DHT22;53422;49.296;6.900;2023-08-06T14:05:30;19.20;99.90
66568;DHT22;53422;49.296;6.900;2023-08-06T14:07:55;19.20;99.90
66568;DHT22;53422;49.296;6.900;2023-08-06T14:10:21;19.20;99.90
66568;DHT22;53422;49.296;6.900;2023-08-06T14:12:47;19.10;99.90
66568;DHT22;53422;49.296;6.900;2023-08-06T14:15:13;19.00;99.90
66568;DHT22;53422;49.296;6.900;2023-08-06T14:17:38;19.10;99.90
66568;DHT22;53422;49.296;6.900;2023-08-06T14:20:06;19.10;99.90
66568;DHT22;53422;49.296;6.900;2023-08-06T14:22:33;19.20;99.90
66568;DHT22;53422;49.296;6.900;2023-08-06T14:24:59;19.20;99.90
66568;DHT22;53422;49.296;6.900;2023-08-06T14:27:25;19.20;99.90
66568;DHT22;53422;49.296;6.900;2023-08-06T14:29:50;19.30;99.90
66568;DHT22;53422;49.296;6.900;2023-08-06T14:32:16;19.30;99.90
66568;DHT22;53422;49.296;6.900;2023-08-06T14:34:43;19.30;99.90
66568;DHT22;53422;49.296;6.900;2023-08-06T14:37:10;19.30;99.90
66568;DHT22;53422;49.296;6.900;2023-08-06T14:39:35;19.30;99.90
66568;DHT22;53422;49.296;6.900;2023-08-06T14:42:04;19.30;99.90
66568;DHT22;53422;49.296;6.900;2023-08-06T14:44:29;19.20;99.90
66568;DHT22;53422;49.296;6.900;2023-08-06T14:46:58;19.10;99.90
66568;DHT22;53422;49.296;6.900;2023-08-06T14:49:23;19.10;99.90
66568;DHT22;53422;49.296;6.900;2023-08-06T14:51:50;19.00;99.90
66568;DHT22;53422;49.296;6.900;2023-08-06T14:54:16;19.00;99.90
66568;DHT22;53422;49.296;6.900;2023-08-06T14:56:41;19.00;99.90
66568;DHT22;53422;49.296;6.900;2023-08-06T14:59:07;18.90;99.90
66568;DHT22;53422;49.296;6.900;2023-08-06T15:01:33;18.90;99.90
66568;DHT22;53422;49.296;6.900;2023-08-06T15:03:59;18.90;99.90
66568;DHT22;53422;49.296;6.900;2023-08-06T15:06:24;18.80;99.90
66568;DHT22;53422;49.296;6.900;2023-08-06T15:08:50;18.70;99.90
66568;DHT22;53422;49.296;6.900;2023-08-06T15:11:15;18.60;99.90
66568;DHT22;53422;49.296;6.900;2023-08-06T15:13:41;18.60;99.90
66568;DHT22;53422;49.296;6.900;2023-08-06T15:16:07;18.50;99.90
66568;DHT22;53422;49.296;6.900;2023-08-06T15:18:32;18.50;99.90
66568;DHT22;53422;49.296;6.900;2023-08-06T15:20:58;18.50;99.90
66568;DHT22;53422;49.296;6.900;2023-08-06T15:23:27;18.40;99.90
66568;DHT22;53422;49.296;6.900;2023-08-06T15:25:53;18.30;99.90
66568;DHT22;53422;49.296;6.900;2023-08-06T15:28:19;18.30;99.90
66568;DHT22;53422;49.296;6.900;2023-08-06T15:30:52;18.30;99.90
66568;DHT22;53422;49.296;6.900;2023-08-06T15:33:24;18.30;99.90